Weather History for KAXS - July, 2013

Change the Weather History Date:

Sunday, July 21, 2013

  Actual Average (KLTS) Record (KLTS)
Temperature  
Mean Temperature 86 °F -  
Max Temperature 99 °F 96 °F 109 °F (2012)
Min Temperature 72 °F 71 °F 65 °F (2008)
Cooling Degree Days 20    
Growing Degree Days 36 (Base 50)    
Moisture  
Dew Point 62 °F    
Average Humidity 47    
Maximum Humidity 83    
Minimum Humidity 24    
Precipitation  
Precipitation 0.00 in - - ()
Sea Level Pressure  
Sea Level Pressure 29.89 in    
Wind  
Wind Speed 11 mph (SSW)    
Max Wind Speed 17 mph    
Max Gust Speed 23 mph    
Visibility 10 miles    
Events      
Averages and records for this station are not official NWS values.
T = Trace of Precipitation, MM = Missing Value Source: NWS Daily Summary

Daily Weather History Graph

Daily Weather History Graph

Search for Another Location

Airport or City:

Trip Planner

Search our weather history database for the weather conditions in past years. The results will help you decide how hot, cold, wet, or windy it might be!

Date:

Astronomy

Jul. 21, 2013 Rise Set
Actual Time 6:39 AM CDT 8:47 PM CDT
Civil Twilight 6:11 AM CDT 9:15 PM CDT
Nautical Twilight 5:36 AM CDT 9:50 PM CDT
Astronomical Twilight 4:59 AM CDT 10:27 PM CDT
Moon 7:49 PM CDT (7/21) 5:26 AM CDT (7/21)
Length of Visible Light 15h 04m
Length of Day
14h 07m
Waxing Gibbous, 98% of the Moon is Illuminated
Jul 21
Waxing Gibbous
Jul 22
Full
Jul 29
Last Quarter
Aug 6
New
Aug 14
First Quarter

Hourly Weather History & Observations

Time (CDT) Temp. Heat Index Dew Point Humidity Pressure Visibility Wind Dir Wind Speed Gust Speed Precip Events Conditions
12:15 AM 83.5 °F 85.1 °F 64.8 °F 53% 29.90 in 10.0 mi South 16.1 mph 20.7 mph N/A   Clear
12:35 AM 83.3 °F 84.8 °F 64.4 °F 53% 29.91 in 10.0 mi South 15.0 mph - N/A   Clear
12:55 AM 82.8 °F 84.3 °F 64.4 °F 54% 29.92 in 10.0 mi South 12.7 mph - N/A   Clear
1:15 AM 82.8 °F 84.3 °F 64.4 °F 54% 29.91 in 10.0 mi South 13.8 mph - N/A   Clear
1:35 AM 81.9 °F 83.5 °F 64.9 °F 56% 29.91 in 10.0 mi South 12.7 mph 18.4 mph N/A   Clear
1:55 AM 81.1 °F 82.9 °F 65.3 °F 58% 29.91 in 10.0 mi South 11.5 mph - N/A   Clear
2:15 AM 80.8 °F 82.8 °F 65.7 °F 60% 29.90 in 10.0 mi South 11.5 mph - N/A   Clear
2:35 AM 80.6 °F 82.7 °F 65.8 °F 61% 29.90 in 10.0 mi South 10.4 mph - N/A   Clear
2:55 AM 79.9 °F - 66.2 °F 63% 29.90 in 10.0 mi South 11.5 mph - N/A   Clear
3:15 AM 79.2 °F - 66.4 °F 65% 29.89 in 10.0 mi South 11.5 mph - N/A   Clear
3:35 AM 79.2 °F - 66.6 °F 65% 29.89 in 10.0 mi South 11.5 mph - N/A   Clear
3:55 AM 79.0 °F - 66.7 °F 66% 29.89 in 10.0 mi South 10.4 mph - N/A   Clear
4:15 AM 78.8 °F - 66.9 °F 67% 29.89 in 10.0 mi South 8.1 mph - N/A   Clear
4:35 AM 77.9 °F - 67.1 °F 69% 29.90 in 10.0 mi South 5.8 mph - N/A   Clear
4:55 AM 75.6 °F - 67.1 °F 75% 29.90 in 10.0 mi Calm Calm - N/A   Clear
5:15 AM 75.4 °F - 67.3 °F 76% 29.90 in 10.0 mi SSE 4.6 mph - N/A   Clear
5:35 AM 75.6 °F - 67.5 °F 76% 29.90 in 10.0 mi South 5.8 mph - N/A   Clear
5:55 AM 74.8 °F - 67.5 °F 78% 29.90 in 10.0 mi SE 3.5 mph - N/A   Clear
6:15 AM 74.1 °F - 67.5 °F 80% 29.91 in 10.0 mi Calm Calm - N/A   Clear
6:35 AM 72.7 °F - 67.3 °F 83% 29.91 in 10.0 mi ESE 4.6 mph - N/A   Clear
6:55 AM 73.4 °F - 67.6 °F 82% 29.91 in 10.0 mi SE 4.6 mph - N/A   Clear
7:15 AM 73.4 °F - 67.6 °F 82% 29.91 in 10.0 mi SE 4.6 mph - N/A   Clear
7:35 AM 74.5 °F - 68.2 °F 81% 29.91 in 10.0 mi Calm Calm - N/A   Clear
7:55 AM 74.8 °F - 68.7 °F 81% 29.91 in 10.0 mi SE 4.6 mph - N/A   Clear
8:15 AM 77.5 °F - 67.8 °F 72% 29.91 in 10.0 mi SSW 3.5 mph - N/A   Clear
8:35 AM 79.2 °F - 67.5 °F 67% 29.92 in 10.0 mi SSW 4.6 mph - N/A   Clear
8:55 AM 81.0 °F 83.3 °F 66.9 °F 62% 29.92 in 10.0 mi SSW 6.9 mph - N/A   Clear
9:15 AM 81.9 °F 84.2 °F 66.7 °F 60% 29.93 in 10.0 mi Calm Calm - N/A   Clear
9:35 AM 84.0 °F 86.0 °F 65.5 °F 54% 29.93 in 10.0 mi WSW 5.8 mph - N/A   Clear
9:55 AM 86.7 °F 88.1 °F 64.4 °F 47% 29.93 in 10.0 mi SW 5.8 mph - N/A   Clear
10:15 AM 88.2 °F 88.7 °F 62.6 °F 42% 29.93 in 10.0 mi WSW 11.5 mph - N/A   Clear
10:35 AM 89.8 °F 89.7 °F 61.3 °F 38% 29.93 in 10.0 mi WSW 13.8 mph 18.4 mph N/A   Clear
10:55 AM 91.4 °F 91.4 °F 60.6 °F 36% 29.93 in 10.0 mi WSW 13.8 mph - N/A   Clear
11:15 AM 91.6 °F 91.3 °F 60.4 °F 35% 29.93 in 10.0 mi SW 15.0 mph 18.4 mph N/A   Clear
11:35 AM 92.3 °F 92.0 °F 60.1 °F 34% 29.93 in 10.0 mi SW 13.8 mph - N/A   Clear
11:55 AM 92.7 °F 91.8 °F 59.2 °F 32% 29.93 in 10.0 mi SW 13.8 mph 21.9 mph N/A   Clear
12:15 PM 93.4 °F 92.8 °F 59.4 °F 32% 29.93 in 10.0 mi SW 13.8 mph 21.9 mph N/A   Clear
1:15 PM 96.1 °F 95.6 °F 58.6 °F 29% 29.91 in 10.0 mi SSW 12.7 mph 20.7 mph N/A   Clear
1:35 PM 95.9 °F 94.9 °F 58.3 °F 28% 29.90 in 10.0 mi SSW 15.0 mph 21.9 mph N/A   Clear
1:55 PM 96.4 °F 95.3 °F 57.4 °F 27% 29.90 in 10.0 mi WSW 10.4 mph 19.6 mph N/A   Clear
2:15 PM 97.3 °F 96.2 °F 56.7 °F 26% 29.89 in 10.0 mi SSW 17.3 mph 20.7 mph N/A   Clear
2:35 PM 97.5 °F 96.5 °F 56.8 °F 26% 29.88 in 10.0 mi SSW 12.7 mph 20.7 mph N/A   Clear
2:55 PM 98.1 °F 96.8 °F 56.7 °F 25% 29.87 in 10.0 mi SSW 15.0 mph 18.4 mph N/A   Clear
3:15 PM 97.9 °F 96.2 °F 54.9 °F 24% 29.87 in 10.0 mi SSW 12.7 mph 20.7 mph N/A   Clear
3:35 PM 98.4 °F 97.3 °F 56.7 °F 25% 29.87 in 10.0 mi SSW 16.1 mph 20.7 mph N/A   Clear
3:55 PM 98.6 °F 97.2 °F 56.3 °F 24% 29.87 in 10.0 mi SSW 12.7 mph 18.4 mph N/A   Clear
4:15 PM 98.1 °F 97.2 °F 57.9 °F 26% 29.86 in 10.0 mi SSW 11.5 mph 23.0 mph N/A   Clear
4:35 PM 98.2 °F 97.5 °F 57.7 °F 26% 29.85 in 10.0 mi SW 15.0 mph 20.7 mph N/A   Clear
4:55 PM 99.7 °F 99.6 °F 58.6 °F 26% 29.85 in 10.0 mi SSW 12.7 mph 20.7 mph N/A   Clear
5:15 PM 98.1 °F 97.2 °F 58.1 °F 26% 29.85 in 10.0 mi SW 13.8 mph 23.0 mph N/A   Clear
5:35 PM 98.2 °F 97.9 °F 59.0 °F 27% 29.85 in 10.0 mi SSW 13.8 mph 20.7 mph N/A   Clear
5:55 PM 98.4 °F 98.2 °F 59.2 °F 27% 29.85 in 10.0 mi SW 11.5 mph - N/A   Clear
6:15 PM 98.4 °F 98.2 °F 59.2 °F 27% 29.84 in 10.0 mi SSW 12.7 mph - N/A   Clear
6:35 PM 97.9 °F 97.4 °F 59.0 °F 27% 29.83 in 10.0 mi SSW 15.0 mph - N/A   Clear
6:55 PM 97.7 °F 97.6 °F 59.4 °F 28% 29.83 in 10.0 mi SSW 15.0 mph - N/A   Clear
7:15 PM 97.2 °F 96.8 °F 58.8 °F 28% 29.83 in 10.0 mi SSW 11.5 mph - N/A   Clear
7:35 PM 95.9 °F 95.7 °F 59.4 °F 30% 29.84 in 10.0 mi SW 11.5 mph 17.3 mph N/A   Clear
7:55 PM 95.7 °F 95.5 °F 59.4 °F 30% 29.84 in 10.0 mi SW 11.5 mph - N/A   Clear
8:15 PM 95.2 °F 94.7 °F 59.0 °F 30% 29.84 in 10.0 mi South 13.8 mph - N/A   Clear
8:35 PM 94.1 °F 93.5 °F 59.4 °F 31% 29.85 in 10.0 mi South 13.8 mph - N/A   Clear
8:55 PM 93.0 °F 92.3 °F 59.4 °F 32% 29.85 in 10.0 mi South 13.8 mph - N/A   Clear
9:15 PM 91.4 °F 91.0 °F 59.9 °F 35% 29.86 in 10.0 mi South 10.4 mph - N/A   Clear
9:35 PM 90.5 °F 90.1 °F 60.4 °F 36% 29.87 in 10.0 mi South 8.1 mph - N/A   Clear
9:55 PM 89.8 °F 89.7 °F 61.2 °F 38% 29.87 in 10.0 mi South 11.5 mph - N/A   Clear
10:15 PM 89.6 °F 89.8 °F 61.7 °F 39% 29.87 in 10.0 mi South 10.4 mph - N/A   Clear
10:35 PM 88.7 °F 88.8 °F 61.7 °F 40% 29.88 in 10.0 mi South 8.1 mph - N/A   Clear
10:55 PM 87.8 °F 88.2 °F 62.2 °F 42% 29.89 in 10.0 mi South 9.2 mph - N/A   Clear
11:15 PM 87.1 °F 87.8 °F 62.6 °F 44% 29.90 in 10.0 mi South 9.2 mph - N/A   Clear
11:35 PM 86.5 °F 87.3 °F 63.0 °F 45% 29.91 in 10.0 mi South 9.2 mph - N/A   Clear
11:55 PM 85.6 °F 86.8 °F 63.7 °F 48% 29.91 in 10.0 mi South 10.4 mph - N/A   Clear